Time;durP1;ratioP1;P1;durP2;ratioP2;P2;SDS_P1;SDS_P2;PMS_P1;PMS_P2;Temp;Humidity;BMP_temperature;BMP_pressure;BME280_temperature;BME280_humidity;BME280_pressure;Samples;Min_cycle;Max_cycle;Signal;HPM_P1;HPM_P2
2022/12/03 00:01:10;;;;;;;36.05;12.77;;;;;;;1.27;96.76;102372.56;5003026;28;20377;-75
2022/12/03 00:03:36;;;;;;;38.70;14.05;;;;;;;1.20;97.07;102374.00;5012623;28;20502;-75
2022/12/03 00:06:01;;;;;;;35.20;12.07;;;;;;;1.20;97.51;102376.56;5016992;28;20021;-75
2022/12/03 00:08:26;;;;;;;32.38;11.90;;;;;;;1.16;97.67;102362.78;5018263;28;20033;-75
2022/12/03 00:10:51;;;;;;;37.95;13.93;;;;;;;1.24;97.10;102368.19;5014222;28;20091;-75
2022/12/03 00:13:17;;;;;;;34.60;12.23;;;;;;;1.19;97.31;102362.03;5013474;28;20071;-75
2022/12/03 00:15:42;;;;;;;34.95;11.95;;;;;;;1.18;97.30;102356.06;5012815;28;20618;-75
2022/12/03 00:18:07;;;;;;;37.90;12.98;;;;;;;1.21;97.35;102365.53;5010577;28;20104;-75
2022/12/03 00:20:33;;;;;;;34.42;12.25;;;;;;;1.27;96.51;102358.09;5013565;28;20558;-75
2022/12/03 00:22:58;;;;;;;40.28;13.75;;;;;;;1.25;97.20;102364.81;5013477;28;20034;-75
2022/12/03 00:25:23;;;;;;;34.70;11.40;;;;;;;1.20;97.25;102353.56;5026001;28;20104;-75
2022/12/03 00:27:48;;;;;;;44.97;13.55;;;;;;;1.21;97.46;102362.09;5013274;28;20029;-75
2022/12/03 00:30:14;;;;;;;33.50;11.52;;;;;;;1.24;97.24;102346.88;5012595;28;20030;-75
2022/12/03 00:32:39;;;;;;;36.10;12.15;;;;;;;1.23;97.53;102356.22;4989991;28;20073;-75
2022/12/03 00:35:05;;;;;;;39.38;13.27;;;;;;;1.24;97.36;102347.75;5008745;28;20335;-75
2022/12/03 00:37:30;;;;;;;37.60;13.38;;;;;;;1.26;97.34;102352.94;5013049;28;20038;-75
2022/12/03 00:39:56;;;;;;;42.30;14.90;;;;;;;1.23;97.04;102350.28;5012057;28;20060;-75
2022/12/03 00:42:21;;;;;;;38.08;12.43;;;;;;;1.22;97.54;102345.97;5025370;28;20037;-75
2022/12/03 00:44:46;;;;;;;38.72;14.23;;;;;;;1.25;97.40;102346.94;5012797;28;20045;-76
2022/12/03 00:47:12;;;;;;;39.33;14.15;;;;;;;1.25;97.26;102346.06;5009699;28;20030;-75
2022/12/03 00:49:37;;;;;;;33.65;12.32;;;;;;;1.31;96.80;102346.31;4994711;28;20028;-75
2022/12/03 00:52:02;;;;;;;35.92;13.32;;;;;;;1.22;97.38;102341.75;5012953;28;20025;-75
2022/12/03 00:54:28;;;;;;;38.67;13.15;;;;;;;1.25;97.79;102348.63;5013498;28;20021;-75
2022/12/03 00:56:53;;;;;;;39.15;13.50;;;;;;;1.27;97.51;102345.31;5028201;28;20036;-75
2022/12/03 00:59:18;;;;;;;35.13;12.73;;;;;;;1.29;97.56;102345.41;5019087;28;20385;-75
2022/12/03 01:01:44;;;;;;;38.00;13.52;;;;;;;1.25;98.05;102341.84;5009001;28;20760;-75
2022/12/03 01:04:09;;;;;;;35.15;11.63;;;;;;;1.27;97.74;102345.31;5011728;28;20104;-75
2022/12/03 01:06:35;;;;;;;41.65;15.10;;;;;;;1.26;97.70;102350.38;5011995;28;20026;-75
2022/12/03 01:09:00;;;;;;;40.15;13.57;;;;;;;1.27;97.50;102352.13;5012979;28;20034;-75
2022/12/03 01:11:37;;;;;;;36.38;13.57;;;;;;;1.24;97.54;102344.31;5011834;28;20522;-75
2022/12/03 01:14:18;;;;;;;35.35;12.05;;;;;;;1.27;97.87;102350.44;5011578;28;20388;-75
2022/12/03 01:16:44;;;;;;;43.67;14.57;;;;;;;1.25;98.01;102349.50;5009075;28;20033;-75
2022/12/03 01:19:15;;;;;;;41.78;14.85;;;;;;;1.21;97.90;102334.88;5012660;28;20136;-75
2022/12/03 01:21:48;;;;;;;40.05;14.70;;;;;;;1.28;98.07;102347.06;5011948;28;20032;-75
2022/12/03 01:24:14;;;;;;;37.15;13.15;;;;;;;1.25;98.18;102344.38;5012087;28;20034;-75
2022/12/03 01:26:39;;;;;;;41.08;15.07;;;;;;;1.28;98.00;102346.19;5011942;28;20048;-75
2022/12/03 01:29:05;;;;;;;38.47;13.25;;;;;;;1.27;97.56;102350.44;5000930;28;20399;-75
2022/12/03 01:34:14;;;;;;;40.03;13.33;;;;;;;1.26;97.53;102342.72;5006171;28;20109;-75
2022/12/03 01:36:40;;;;;;;37.70;13.57;;;;;;;1.24;97.89;102347.75;5012165;28;20017;-75
2022/12/03 01:39:05;;;;;;;40.80;14.35;;;;;;;1.25;97.93;102346.94;5011656;28;20037;-75
2022/12/03 01:41:32;;;;;;;40.50;14.38;;;;;;;1.28;97.80;102341.09;5011751;28;20025;-75
2022/12/03 01:43:58;;;;;;;42.38;14.48;;;;;;;1.26;97.96;102340.16;5011436;28;20037;-75
2022/12/03 01:46:30;;;;;;;39.22;13.90;;;;;;;1.28;97.92;102338.53;5009579;28;20044;-75
2022/12/03 01:48:55;;;;;;;43.17;15.18;;;;;;;1.25;97.52;102336.72;5005494;28;20399;-75
2022/12/03 01:51:21;;;;;;;39.53;13.18;;;;;;;1.24;97.63;102340.09;5010483;28;20495;-75
2022/12/03 01:53:47;;;;;;;41.45;14.52;;;;;;;1.25;98.14;102336.72;5011831;28;20030;-75
2022/12/03 01:56:15;;;;;;;43.35;15.25;;;;;;;1.28;98.25;102331.75;4993537;28;20369;-75
2022/12/03 01:58:41;;;;;;;38.28;13.30;;;;;;;1.27;97.96;102335.13;4990646;28;20136;-76
2022/12/03 02:01:12;;;;;;;40.97;14.48;;;;;;;1.27;97.95;102329.13;5010493;28;20033;-75
2022/12/03 02:03:38;;;;;;;39.85;13.80;;;;;;;1.28;97.75;102329.19;4994070;28;20041;-75
2022/12/03 02:06:05;;;;;;;41.55;14.63;;;;;;;1.28;97.99;102329.19;5011053;28;20030;-75
2022/12/03 02:08:34;;;;;;;44.88;15.25;;;;;;;1.26;98.26;102327.38;5011443;28;20570;-75
2022/12/03 02:11:13;;;;;;;42.95;15.02;;;;;;;1.27;98.03;102327.44;5011348;28;20141;-76
2022/12/03 02:13:39;;;;;;;41.15;14.77;;;;;;;1.28;98.05;102334.31;5015451;28;20029;-75
2022/12/03 02:16:05;;;;;;;40.33;13.75;;;;;;;1.27;98.15;102330.00;5012132;28;20076;-75
2022/12/03 02:18:30;;;;;;;43.28;15.30;;;;;;;1.26;98.30;102329.94;5010424;28;20033;-76
2022/12/03 02:21:06;;;;;;;43.97;14.40;;;;;;;1.26;97.76;102330.81;5008128;28;20108;-76
2022/12/03 02:24:07;;;;;;;42.08;13.68;;;;;;;1.28;98.32;102326.66;5002188;28;20056;-75
2022/12/03 02:26:32;;;;;;;41.22;14.27;;;;;;;1.27;97.57;102329.13;4938705;29;20063;-75
2022/12/03 02:28:57;;;;;;;44.60;15.13;;;;;;;1.27;97.79;102330.00;4998412;28;20080;-75
2022/12/03 02:31:23;;;;;;;38.70;13.00;;;;;;;1.25;97.97;102315.44;5004366;28;20029;-75
2022/12/03 02:33:49;;;;;;;40.30;14.32;;;;;;;1.25;97.95;102323.97;5008891;28;20476;-75
2022/12/03 02:36:15;;;;;;;45.30;13.98;;;;;;;1.26;98.41;102319.72;5011328;28;20129;-75
2022/12/03 02:38:42;;;;;;;39.60;14.27;;;;;;;1.25;98.40;102312.88;5008661;28;20053;-75
2022/12/03 02:42:33;;;;;;;43.75;14.00;;;;;;;1.25;97.95;102313.75;5009233;28;20100;-75
2022/12/03 02:43:57;;;;;;;36.60;12.30;;;;;;;1.29;97.71;102312.19;5010909;28;20049;-75
2022/12/03 02:46:23;;;;;;;41.95;14.43;;;;;;;1.24;97.77;102312.00;5010205;28;20025;-75
2022/12/03 02:48:48;;;;;;;48.92;17.35;;;;;;;1.27;97.82;102312.13;5010789;28;20026;-77
2022/12/03 02:51:13;;;;;;;40.83;14.00;;;;;;;1.27;97.78;102306.16;5010779;28;20079;-76
2022/12/03 02:53:43;;;;;;;40.08;13.73;;;;;;;1.26;98.17;102312.94;5012657;28;20021;-77
2022/12/03 02:56:12;;;;;;;42.15;15.27;;;;;;;1.22;98.04;102305.13;5009522;28;20033;-77
2022/12/03 02:58:40;;;;;;;44.67;15.25;;;;;;;1.21;98.59;102300.81;5009840;28;20057;-77
2022/12/03 03:01:07;;;;;;;39.92;14.20;;;;;;;1.22;98.68;102305.13;5010532;28;20021;-77
2022/12/03 03:03:33;;;;;;;41.70;13.18;;;;;;;1.22;98.68;102305.13;5010196;28;20036;-77
2022/12/03 03:06:00;;;;;;;45.38;16.05;;;;;;;1.26;98.45;102305.28;5009847;28;20029;-77
2022/12/03 03:08:27;;;;;;;45.05;15.13;;;;;;;1.21;98.63;102311.91;5014772;28;20041;-77
2022/12/03 03:10:53;;;;;;;44.63;15.40;;;;;;;1.22;98.61;102300.00;5012448;28;20119;-78
2022/12/03 03:13:19;;;;;;;42.75;14.80;;;;;;;1.22;98.58;102303.44;5009472;28;20435;-77
2022/12/03 03:15:44;;;;;;;40.83;14.82;;;;;;;1.23;98.83;102301.75;5010655;28;20484;-76
2022/12/03 03:18:12;;;;;;;44.65;14.20;;;;;;;1.18;98.92;102304.97;5009147;28;20079;-76
2022/12/03 03:20:38;;;;;;;45.17;15.48;;;;;;;1.23;99.07;102306.84;5009762;28;20022;-75
2022/12/03 03:23:16;;;;;;;44.55;15.07;;;;;;;1.24;99.06;102301.78;5016627;28;20267;-75
2022/12/03 03:25:46;;;;;;;41.47;14.80;;;;;;;1.26;98.82;102295.06;5010285;28;20399;-75
2022/12/03 03:28:13;;;;;;;42.05;14.98;;;;;;;1.25;99.22;102295.00;5011940;28;20728;-75
2022/12/03 03:30:42;;;;;;;47.47;15.18;;;;;;;1.26;98.93;102295.06;5016856;28;20030;-75
2022/12/03 03:33:08;;;;;;;38.15;14.25;;;;;;;1.24;99.00;102290.69;5015466;28;20030;-75
2022/12/03 03:35:35;;;;;;;44.45;15.60;;;;;;;1.26;99.01;102294.19;5016938;28;20547;-75
2022/12/03 03:38:00;;;;;;;46.97;15.70;;;;;;;1.24;99.31;102283.91;5018121;28;20033;-75
2022/12/03 03:40:26;;;;;;;43.60;15.32;;;;;;;1.24;99.28;102285.59;5016883;28;20018;-75
2022/12/03 03:42:52;;;;;;;41.70;15.82;;;;;;;1.23;99.06;102287.25;5015819;28;20122;-75
2022/12/03 03:45:18;;;;;;;42.60;14.70;;;;;;;1.23;98.79;102278.75;5014817;28;20049;-75
2022/12/03 03:47:44;;;;;;;42.65;15.43;;;;;;;1.24;98.93;102271.13;5016741;28;20025;-75
2022/12/03 03:50:11;;;;;;;47.10;15.93;;;;;;;1.23;99.13;102278.75;5016487;28;20037;-75
2022/12/03 03:52:38;;;;;;;44.40;15.45;;;;;;;1.25;98.89;102275.44;5018898;28;20442;-75
2022/12/03 03:55:04;;;;;;;42.47;15.32;;;;;;;1.23;98.95;102274.50;5016590;28;20041;-75
2022/12/03 03:57:30;;;;;;;44.72;14.23;;;;;;;1.23;99.47;102279.59;5016299;28;20113;-75
2022/12/03 03:59:57;;;;;;;45.40;15.00;;;;;;;1.24;98.83;102276.25;5015704;28;20109;-75
2022/12/03 04:02:25;;;;;;;42.45;14.35;;;;;;;1.26;98.60;102278.88;5015360;28;20030;-75
2022/12/03 04:04:50;;;;;;;43.03;15.20;;;;;;;1.26;98.29;102278.88;5016657;28;20523;-75
2022/12/03 04:07:16;;;;;;;46.53;15.77;;;;;;;1.22;98.83;102277.88;5013088;28;20121;-75
2022/12/03 04:09:42;;;;;;;48.85;16.55;;;;;;;1.22;98.82;102274.47;5015456;28;20050;-75
2022/12/03 04:14:52;;;;;;;44.15;15.10;;;;;;;1.21;98.89;102271.03;5015655;28;20037;-75
2022/12/03 04:17:18;;;;;;;46.20;15.38;;;;;;;1.19;98.98;102267.56;5016222;28;20025;-75
2022/12/03 04:19:43;;;;;;;42.08;14.75;;;;;;;1.21;99.26;102268.47;5016530;28;20099;-75
2022/12/03 04:28:47;;;;;;;43.80;15.02;;;;;;;1.23;99.18;102279.59;5015785;28;20404;-75
2022/12/03 04:30:21;;;;;;;45.40;15.83;;;;;;;1.22;99.29;102277.03;5016017;28;20103;-75
2022/12/03 04:35:42;;;;;;;43.57;14.63;;;;;;;1.22;99.15;102264.25;5016744;28;20076;-75
2022/12/03 04:38:12;;;;;;;45.22;15.60;;;;;;;1.22;98.64;102272.78;5013121;28;20025;-75
2022/12/03 04:43:22;;;;;;;47.47;16.70;;;;;;;1.19;99.39;102268.41;5001308;28;20554;-75
2022/12/03 04:45:47;;;;;;;48.53;15.77;;;;;;;1.18;99.27;102264.13;5013262;28;20029;-75
2022/12/03 04:48:13;;;;;;;47.42;16.42;;;;;;;1.19;99.57;102270.09;5012945;28;20040;-75
2022/12/03 04:50:38;;;;;;;36.53;13.77;;;;;;;1.26;98.94;102264.41;5010276;28;20104;-75
2022/12/03 04:53:03;;;;;;;41.35;15.02;;;;;;;1.25;99.09;102269.44;5012891;28;20061;-75
2022/12/03 04:55:29;;;;;;;47.15;17.23;;;;;;;1.21;99.34;102262.50;5013347;28;20030;-75
2022/12/03 04:57:54;;;;;;;44.78;15.35;;;;;;;1.15;99.64;102264.03;5012554;28;20022;-75
2022/12/03 05:00:19;;;;;;;47.95;17.10;;;;;;;1.16;100.00;102263.19;5012803;28;20025;-75
2022/12/03 05:02:45;;;;;;;51.20;16.38;;;;;;;1.15;100.00;102269.13;5012255;28;20254;-75
2022/12/03 05:05:10;;;;;;;54.78;18.02;;;;;;;1.17;100.00;102262.38;5011920;28;20566;-75
2022/12/03 05:07:36;;;;;;;50.45;16.85;;;;;;;1.17;100.00;102258.94;5009705;28;20029;-75
2022/12/03 05:10:01;;;;;;;47.83;16.00;;;;;;;1.14;100.00;102251.19;5012574;28;20077;-75
2022/12/03 05:12:27;;;;;;;47.15;16.27;;;;;;;1.14;100.00;102251.19;4994576;28;20495;-76
2022/12/03 05:14:53;;;;;;;52.70;17.27;;;;;;;1.15;100.00;102258.03;5012754;28;20560;-75
2022/12/03 05:17:18;;;;;;;50.25;17.42;;;;;;;1.16;100.00;102257.25;5011947;28;20427;-75
2022/12/03 05:22:27;;;;;;;49.57;16.83;;;;;;;1.16;100.00;102249.56;5006705;28;20420;-75
2022/12/03 05:24:52;;;;;;;49.17;17.42;;;;;;;1.14;100.00;102261.41;5007856;28;20487;-75
2022/12/03 05:27:18;;;;;;;50.35;17.85;;;;;;;1.10;100.00;102256.97;5012063;28;20033;-75
2022/12/03 05:29:43;;;;;;;46.03;17.30;;;;;;;1.09;100.00;102255.28;5012420;28;20045;-75
2022/12/03 05:32:08;;;;;;;52.25;17.23;;;;;;;1.07;100.00;102246.66;5011994;28;20291;-75
2022/12/03 05:34:33;;;;;;;51.15;17.23;;;;;;;1.09;100.00;102248.44;5010335;28;20026;-75
2022/12/03 05:36:59;;;;;;;50.50;16.08;;;;;;;1.08;100.00;102246.72;5010325;28;20061;-75
2022/12/03 05:39:24;;;;;;;49.22;17.02;;;;;;;1.08;100.00;102241.63;5012217;28;20034;-75
2022/12/03 05:44:33;;;;;;;44.90;16.15;;;;;;;1.12;100.00;102247.72;5011279;28;20041;-75
2022/12/03 05:46:58;;;;;;;42.97;15.07;;;;;;;1.10;100.00;102242.53;5011748;28;20025;-75
2022/12/03 05:49:23;;;;;;;49.17;15.77;;;;;;;1.10;100.00;102236.56;5014663;28;20030;-75
2022/12/03 05:51:49;;;;;;;49.05;15.95;;;;;;;1.11;100.00;102235.75;5008823;28;20619;-75
2022/12/03 05:54:14;;;;;;;45.28;15.23;;;;;;;1.13;100.00;102239.25;5010907;28;20037;-75
2022/12/03 05:56:39;;;;;;;51.15;16.88;;;;;;;1.10;100.00;102239.09;5010569;28;20029;-75
2022/12/03 05:59:05;;;;;;;50.70;16.73;;;;;;;1.06;100.00;102230.47;5011838;28;20037;-75
2022/12/03 06:01:30;;;;;;;52.50;16.33;;;;;;;1.09;100.00;102235.69;5011611;28;20037;-75
2022/12/03 06:03:55;;;;;;;47.85;16.23;;;;;;;1.05;100.00;102238.06;5010521;28;20102;-75
2022/12/03 06:06:20;;;;;;;51.13;15.98;;;;;;;1.06;100.00;102237.28;4990731;28;20024;-75
2022/12/03 06:08:46;;;;;;;50.05;16.63;;;;;;;1.06;100.00;102237.28;5011301;28;20109;-74
2022/12/03 06:11:11;;;;;;;47.17;16.10;;;;;;;1.07;100.00;102233.91;5010501;28;20136;-75
2022/12/03 06:13:36;;;;;;;49.90;15.88;;;;;;;1.06;100.00;102240.69;4993707;28;20484;-75
2022/12/03 06:16:02;;;;;;;49.40;15.93;;;;;;;1.07;100.00;102239.00;4993922;28;20040;-75
2022/12/03 06:18:27;;;;;;;54.50;17.75;;;;;;;1.04;100.00;102227.00;5010174;28;20030;-76
2022/12/03 06:20:52;;;;;;;49.08;17.20;;;;;;;1.05;100.00;102232.97;5009501;28;20034;-76
2022/12/03 06:23:18;;;;;;;55.22;16.60;;;;;;;1.06;100.00;102237.28;5009236;28;20044;-77
2022/12/03 06:25:43;;;;;;;53.88;16.70;;;;;;;1.05;100.00;102230.41;5011148;28;20060;-76
2022/12/03 06:28:08;;;;;;;44.47;15.45;;;;;;;1.07;100.00;102231.34;5009026;28;20167;-77
2022/12/03 06:30:34;;;;;;;52.08;17.30;;;;;;;1.03;100.00;102234.59;5018744;28;20053;-77
2022/12/03 06:33:00;;;;;;;54.05;17.20;;;;;;;1.02;100.00;102227.78;5010512;28;20026;-77
2022/12/03 06:35:25;;;;;;;38.53;12.00;;;;;;;1.06;100.00;102235.59;5011246;28;20387;-77
2022/12/03 06:37:51;;;;;;;39.25;13.73;;;;;;;1.07;100.00;102227.13;5008105;28;20026;-77
2022/12/03 06:40:16;;;;;;;48.00;16.50;;;;;;;1.05;100.00;102235.53;5010095;28;20373;-77
2022/12/03 06:42:42;;;;;;;47.13;15.35;;;;;;;1.04;100.00;102237.22;5010619;28;20092;-77
2022/12/03 06:45:07;;;;;;;47.78;16.30;;;;;;;1.03;100.00;102234.59;5013143;28;20491;-77
2022/12/03 06:47:33;;;;;;;50.60;16.92;;;;;;;1.05;100.00;102232.97;5016453;28;20025;-77
2022/12/03 06:49:58;;;;;;;46.75;15.10;;;;;;;1.03;100.00;102226.94;5011174;28;20105;-77
2022/12/03 06:52:23;;;;;;;47.05;16.08;;;;;;;1.04;100.00;102224.44;5005531;28;20373;-77
2022/12/03 06:54:49;;;;;;;45.55;14.52;;;;;;;1.08;100.00;102230.53;5010012;28;20030;-77
2022/12/03 06:57:14;;;;;;;47.92;16.05;;;;;;;1.06;100.00;102227.94;5011475;28;20014;-77
2022/12/03 06:59:39;;;;;;;46.53;16.00;;;;;;;1.05;100.00;102220.19;5017521;28;20033;-77
2022/12/03 07:02:05;;;;;;;48.22;16.27;;;;;;;1.03;100.00;102214.16;5008832;28;20702;-77
2022/12/03 07:04:30;;;;;;;46.35;14.85;;;;;;;1.02;100.00;102226.09;5008828;28;20021;-77
2022/12/03 07:06:56;;;;;;;46.33;15.07;;;;;;;1.01;100.00;102220.91;5011960;28;20034;-77
2022/12/03 07:09:21;;;;;;;48.83;15.90;;;;;;;1.05;100.00;102227.88;5010068;28;20025;-77
2022/12/03 07:11:46;;;;;;;44.08;14.85;;;;;;;1.04;100.00;102221.00;5009964;28;20018;-77
2022/12/03 07:14:12;;;;;;;41.95;14.73;;;;;;;1.03;100.00;102225.25;5010471;28;20556;-76
2022/12/03 07:16:38;;;;;;;41.72;13.43;;;;;;;1.03;100.00;102217.59;4991576;28;20029;-77
2022/12/03 07:19:05;;;;;;;43.72;13.55;;;;;;;1.04;100.00;102226.13;5018065;28;20575;-77
2022/12/03 07:21:30;;;;;;;44.33;14.35;;;;;;;1.04;100.00;102221.88;5014916;28;20034;-77
2022/12/03 07:23:56;;;;;;;44.20;14.15;;;;;;;1.05;100.00;102228.72;5010035;28;20026;-77
2022/12/03 07:26:21;;;;;;;43.88;15.05;;;;;;;1.04;100.00;102226.13;5008843;28;20435;-77
2022/12/03 07:28:49;;;;;;;40.65;13.88;;;;;;;1.04;100.00;102219.34;5008589;28;20104;-77
2022/12/03 07:31:15;;;;;;;45.63;14.25;;;;;;;1.04;100.00;102226.13;5010137;28;20489;-77
2022/12/03 07:33:40;;;;;;;43.25;14.05;;;;;;;1.05;100.00;102220.19;5010343;28;20022;-77
2022/12/03 07:36:06;;;;;;;35.70;12.15;;;;;;;1.02;100.00;102223.53;5008926;28;20026;-77
2022/12/03 07:38:31;;;;;;;44.15;14.32;;;;;;;1.06;100.00;102224.50;5007985;28;20026;-77
2022/12/03 07:40:56;;;;;;;40.20;12.93;;;;;;;1.10;99.87;102226.34;5010235;28;20524;-77
2022/12/03 07:43:22;;;;;;;39.08;12.73;;;;;;;1.07;100.00;102232.22;4992176;28;20461;-78
2022/12/03 07:45:47;;;;;;;38.45;13.73;;;;;;;1.04;100.00;102218.47;4991865;28;20451;-77
2022/12/03 07:48:13;;;;;;;39.80;14.25;;;;;;;1.04;100.00;102221.88;5007887;28;20261;-76
2022/12/03 07:50:38;;;;;;;41.35;12.82;;;;;;;1.09;100.00;102229.75;5009920;28;20472;-75
2022/12/03 07:53:03;;;;;;;45.60;14.63;;;;;;;1.07;100.00;102227.13;5010009;28;20384;-75
2022/12/03 07:55:29;;;;;;;39.92;13.93;;;;;;;1.07;100.00;102226.25;5010453;28;20026;-75
2022/12/03 07:57:54;;;;;;;41.33;15.18;;;;;;;1.06;100.00;102222.81;5015631;28;20112;-75
2022/12/03 08:00:20;;;;;;;42.15;14.50;;;;;;;1.10;100.00;102227.22;5009320;28;20121;-75
2022/12/03 08:02:45;;;;;;;45.05;13.90;;;;;;;1.10;100.00;102234.88;5008140;28;20034;-75
2022/12/03 08:05:11;;;;;;;43.20;13.95;;;;;;;1.09;100.00;102230.56;4996938;28;20419;-75
2022/12/03 08:07:36;;;;;;;41.30;13.90;;;;;;;1.10;100.00;102228.91;5010071;28;20492;-75
2022/12/03 08:10:03;;;;;;;46.15;15.13;;;;;;;1.10;100.00;102241.66;5009940;28;20108;-75
2022/12/03 08:12:41;;;;;;;48.30;14.70;;;;;;;1.06;100.00;102227.94;4992122;28;20026;-75
2022/12/03 08:15:14;;;;;;;43.10;13.82;;;;;;;1.09;100.00;102233.13;5010894;28;20034;-75
2022/12/03 08:17:41;;;;;;;47.58;13.82;;;;;;;1.11;100.00;102233.19;5014139;28;20026;-75
2022/12/03 08:20:17;;;;;;;44.65;14.63;;;;;;;1.11;100.00;102238.31;5013724;28;20382;-75
2022/12/03 08:22:45;;;;;;;46.08;14.73;;;;;;;1.12;100.00;102240.03;5012927;28;20029;-75
2022/12/03 08:25:22;;;;;;;45.03;14.50;;;;;;;1.14;100.00;102235.88;5013846;28;20030;-75
2022/12/03 08:27:47;;;;;;;41.70;14.48;;;;;;;1.15;100.00;102241.03;5013479;28;20053;-75
2022/12/03 08:30:14;;;;;;;48.92;14.43;;;;;;;1.16;100.00;102237.66;4996013;28;20485;-75
2022/12/03 08:32:40;;;;;;;48.72;14.98;;;;;;;1.19;100.00;102237.78;4993781;28;20030;-75
2022/12/03 08:35:19;;;;;;;48.97;14.80;;;;;;;1.17;100.00;102239.41;5013345;28;20112;-75
2022/12/03 08:37:45;;;;;;;47.28;14.38;;;;;;;1.16;99.97;102241.91;5007276;28;20045;-75
2022/12/03 08:40:20;;;;;;;47.35;14.20;;;;;;;1.14;99.86;102239.31;5012869;28;20640;-75
2022/12/03 08:42:46;;;;;;;48.47;15.48;;;;;;;1.20;99.79;102243.75;5013061;28;20034;-75
2022/12/03 08:45:20;;;;;;;46.78;14.05;;;;;;;1.18;100.00;102237.72;5012080;28;20072;-75
2022/12/03 08:47:45;;;;;;;;;;;;;;;1.24;100.00;102239.63;5012411;28;20042;-75
2022/12/03 08:50:28;;;;;;;45.57;13.50;;;;;;;1.21;99.79;102247.19;5014887;28;19967;-75
2022/12/03 08:52:58;;;;;;;40.72;12.93;;;;;;;1.23;99.25;102238.75;5012992;28;20284;-75
2022/12/03 08:55:38;;;;;;;44.63;12.80;;;;;;;1.23;99.01;102230.25;5013063;28;20392;-74
2022/12/03 08:58:26;;;;;;;47.53;14.63;;;;;;;1.18;98.67;102238.59;4995177;28;20504;-75
2022/12/03 09:01:24;;;;;;;48.15;13.73;;;;;;;1.16;98.10;102242.75;5010542;28;20022;-75
2022/12/03 09:03:53;;;;;;;43.60;13.25;;;;;;;1.17;98.34;102235.97;5010763;28;20408;-76
2022/12/03 09:06:19;;;;;;;51.80;14.85;;;;;;;1.15;98.23;102230.84;5011656;28;20125;-75
2022/12/03 09:08:45;;;;;;;47.47;15.15;;;;;;;1.13;97.53;102229.03;5003800;28;20405;-76
2022/12/03 09:11:11;;;;;;;51.55;15.38;;;;;;;1.15;98.07;102228.28;5010981;28;20508;-76
2022/12/03 09:13:36;;;;;;;48.72;14.65;;;;;;;1.15;97.50;102233.38;5007148;28;20091;-75
2022/12/03 09:16:01;;;;;;;49.40;14.10;;;;;;;1.16;97.40;102232.53;5010980;28;20038;-75
2022/12/03 09:18:27;;;;;;;53.30;15.52;;;;;;;1.15;98.03;102233.38;5009995;28;20029;-75
2022/12/03 09:20:52;;;;;;;50.20;15.13;;;;;;;1.18;98.37;102233.47;5010700;28;20025;-75
2022/12/03 09:23:17;;;;;;;47.53;14.48;;;;;;;1.20;98.28;102236.09;5010576;28;20113;-75
2022/12/03 09:25:43;;;;;;;53.85;15.32;;;;;;;1.21;98.31;102234.41;5011178;28;20475;-75
2022/12/03 09:28:08;;;;;;;51.45;16.35;;;;;;;1.22;98.86;102237.03;5011857;28;20510;-75
2022/12/03 09:30:33;;;;;;;49.22;14.82;;;;;;;1.24;98.49;102235.38;5008776;28;20036;-75
2022/12/03 09:32:59;;;;;;;45.63;14.70;;;;;;;1.22;98.45;102229.38;5012396;28;20046;-75
2022/12/03 09:35:25;;;;;;;49.58;14.95;;;;;;;1.22;98.26;102233.59;5010634;28;20030;-75
2022/12/03 09:37:51;;;;;;;54.15;16.45;;;;;;;1.22;98.14;102231.94;5012026;28;20037;-75
2022/12/03 09:40:16;;;;;;;49.13;14.80;;;;;;;1.18;98.80;102224.94;5011091;28;20029;-75
2022/12/03 09:42:42;;;;;;;52.55;15.23;;;;;;;1.23;98.43;102233.63;5011904;28;20105;-75
2022/12/03 09:45:11;;;;;;;57.42;16.30;;;;;;;1.23;98.41;102230.25;5010228;28;20022;-75
2022/12/03 09:47:42;;;;;;;48.22;15.90;;;;;;;1.25;98.19;102228.59;5011708;28;20378;-75
2022/12/03 09:50:13;;;;;;;55.72;16.33;;;;;;;1.21;98.47;102230.19;5011325;28;20049;-75
2022/12/03 09:52:38;;;;;;;42.20;13.15;;;;;;;1.25;97.45;102226.03;5010180;28;20021;-76
2022/12/03 09:55:10;;;;;;;50.20;15.30;;;;;;;1.18;97.45;102220.72;5017862;28;20033;-75
2022/12/03 09:57:35;;;;;;;48.95;15.32;;;;;;;1.18;98.19;102219.84;5015827;28;20080;-75
2022/12/03 10:00:01;;;;;;;48.47;15.45;;;;;;;1.17;98.36;102213.84;5010559;28;20113;-75
2022/12/03 10:02:29;;;;;;;55.00;16.38;;;;;;;1.19;98.73;102213.91;5009932;28;20030;-75
2022/12/03 10:04:55;;;;;;;52.05;16.23;;;;;;;1.18;98.24;102209.63;4994077;28;20524;-75
2022/12/03 10:07:22;;;;;;;53.08;15.25;;;;;;;1.18;98.64;102214.72;5010386;28;20059;-75
2022/12/03 10:09:47;;;;;;;53.50;15.60;;;;;;;1.19;98.96;102211.38;5022609;28;20115;-75
2022/12/03 10:12:19;;;;;;;53.67;15.68;;;;;;;1.18;98.88;102215.59;5011678;28;20376;-75
2022/12/03 10:14:45;;;;;;;56.80;14.80;;;;;;;1.21;98.55;102206.31;5010109;28;20567;-75
2022/12/03 10:17:10;;;;;;;53.03;14.93;;;;;;;1.18;99.09;102204.53;5014880;28;20025;-75
2022/12/03 10:19:38;;;;;;;51.78;14.98;;;;;;;1.20;98.32;102202.91;5011697;28;20417;-75
2022/12/03 10:22:03;;;;;;;60.70;16.20;;;;;;;1.20;98.86;102197.78;5011272;28;20029;-75
2022/12/03 10:24:31;;;;;;;50.75;14.55;;;;;;;1.24;99.25;102194.53;5011233;28;20096;-75
2022/12/03 10:27:03;;;;;;;49.42;14.68;;;;;;;1.26;98.97;102186.91;5011492;28;20034;-75
2022/12/03 10:29:33;;;;;;;54.35;16.05;;;;;;;1.26;99.21;102192.03;5009640;28;20112;-75
2022/12/03 10:32:07;;;;;;;52.55;15.35;;;;;;;1.31;98.17;102188.81;5013083;28;20404;-75
2022/12/03 10:34:34;;;;;;;;;;;;;;;1.28;97.00;102191.28;5012065;28;20056;-75
2022/12/03 10:37:21;;;;;;;43.58;11.77;;;;;;;1.28;96.13;102195.50;5010765;28;19909;-75
2022/12/03 10:39:55;;;;;;;38.75;11.65;;;;;;;1.20;95.46;102182.47;5010955;28;20018;-75
2022/12/03 10:42:21;;;;;;;;;;;;;;;1.24;96.18;102186.84;5011192;28;20400;-75
2022/12/03 10:44:46;;;;;;;32.63;10.50;;;;;;;1.23;95.25;102177.44;5008589;28;19913;-75
2022/12/03 10:47:13;;;;;;;35.25;10.57;;;;;;;1.28;93.96;102180.19;5004261;28;20021;-75
2022/12/03 10:49:40;;;;;;;36.35;10.55;;;;;;;1.29;93.58;102166.63;5010281;28;20025;-77
2022/12/03 10:52:22;;;;;;;36.92;11.15;;;;;;;1.32;92.77;102164.16;5009086;28;20041;-77
2022/12/03 10:54:48;;;;;;;29.30;9.90;;;;;;;1.30;91.36;102160.69;5010327;28;20068;-78
2022/12/03 10:57:14;;;;;;;28.98;9.85;;;;;;;1.26;91.70;102153.72;5007261;28;20033;-77
2022/12/03 10:59:41;;;;;;;28.35;9.48;;;;;;;1.26;90.81;102149.47;5011067;28;20018;-77
2022/12/03 11:02:21;;;;;;;23.92;8.65;;;;;;;1.32;91.02;102152.25;5014583;28;20040;-77
2022/12/03 11:04:47;;;;;;;27.42;9.50;;;;;;;1.30;90.93;102146.22;5010827;28;20041;-78
2022/12/03 11:07:19;;;;;;;30.20;9.93;;;;;;;1.32;90.47;102136.06;5010266;28;20037;-78
2022/12/03 11:09:47;;;;;;;30.55;9.80;;;;;;;1.29;91.08;102143.63;5007879;28;20116;-77
2022/12/03 11:12:27;;;;;;;32.20;10.48;;;;;;;1.34;91.42;102145.53;5009144;28;20018;-77
2022/12/03 11:14:56;;;;;;;29.10;9.73;;;;;;;1.33;91.00;102143.78;5010622;28;20101;-77
2022/12/03 11:17:39;;;;;;;30.88;10.52;;;;;;;1.35;91.41;102139.59;5015269;28;20030;-77
2022/12/03 11:20:25;;;;;;;32.88;10.57;;;;;;;1.36;92.55;102141.34;5010622;28;20083;-77
2022/12/03 11:22:54;;;;;;;23.83;7.95;;;;;;;1.40;90.95;102139.75;4960221;28;20041;-78
2022/12/03 11:25:25;;;;;;;33.58;10.98;;;;;;;1.31;91.22;102134.31;5009023;28;20033;-77
2022/12/03 11:28:09;;;;;;;33.92;10.45;;;;;;;1.23;91.26;102131.50;5010117;28;20026;-77
2022/12/03 11:30:52;;;;;;;29.48;10.98;;;;;;;1.24;91.38;102124.69;5010059;28;20026;-77
2022/12/03 11:33:26;;;;;;;31.38;11.15;;;;;;;1.27;90.75;102129.94;5009755;28;20365;-77
2022/12/03 11:36:03;;;;;;;38.25;12.43;;;;;;;1.29;90.78;102123.19;5010488;28;20049;-77
2022/12/03 11:38:42;;;;;;;38.22;12.50;;;;;;;1.29;90.91;102115.53;5009097;28;20515;-77
2022/12/03 11:41:10;;;;;;;37.90;12.82;;;;;;;1.34;91.39;102119.97;5001893;28;20269;-77